EZY267 LZIB-LUKK
Flight info
| Callsign | EZY267 |
|---|---|
| Flight time | 1h 25m |
| Altitude | 23000 |
| Route | NIT2Y NIT M748 ERGOM/N0430F370 DCT EPARI DCT NIPUR DCT BADOR DCT ARPIG DCT UNIRA UNIRA6A |
| Aircraft | A319/M-V/N |
Departure
| Time | 2026-05-04 18:10 |
|---|---|
| Airport | M. R. Štefánik Airport (LZIB) |
Arrival
| Time | 2026-05-04 19:35 |
|---|---|
| Airport | Chişinău International Airport (LUKK) |
| Time | Latitude | Longitude | Altitude | Speed | Heading |
|---|---|---|---|---|---|
| 2026-05-04 17:40 | 48.17085 | 17.20331 | 442 ft | 0 kts | 310° |
| 2026-05-04 18:00 | 48.17078 | 17.20343 | 442 ft | 2 kts | 311° |
| 2026-05-04 18:00 | 48.17067 | 17.20362 | 431 ft | 2 kts | 314° |
| 2026-05-04 18:00 | 48.17055 | 17.20378 | 432 ft | 2 kts | 328° |
| 2026-05-04 18:01 | 48.17039 | 17.20382 | 435 ft | 2 kts | 29° |
| 2026-05-04 18:01 | 48.17032 | 17.20375 | 426 ft | 0 kts | 42° |
| 2026-05-04 18:04 | 48.17033 | 17.20375 | 442 ft | 0 kts | 42° |
| 2026-05-04 18:04 | 48.17038 | 17.20383 | 438 ft | 2 kts | 42° |
| 2026-05-04 18:04 | 48.17086 | 17.20449 | 442 ft | 8 kts | 43° |
| 2026-05-04 18:05 | 48.17140 | 17.20528 | 442 ft | 13 kts | 43° |
| 2026-05-04 18:05 | 48.17221 | 17.20558 | 432 ft | 13 kts | 335° |
| 2026-05-04 18:05 | 48.17293 | 17.20463 | 437 ft | 15 kts | 315° |
| 2026-05-04 18:05 | 48.17372 | 17.20344 | 442 ft | 17 kts | 323° |
| 2026-05-04 18:06 | 48.17447 | 17.20302 | 440 ft | 0 kts | 5° |
| 2026-05-04 18:07 | 48.17451 | 17.20303 | 442 ft | 2 kts | 6° |
| 2026-05-04 18:08 | 48.17468 | 17.20308 | 442 ft | 4 kts | 12° |
| 2026-05-04 18:08 | 48.17498 | 17.20328 | 441 ft | 9 kts | 30° |
| 2026-05-04 18:08 | 48.17533 | 17.20448 | 434 ft | 17 kts | 116° |
| 2026-05-04 18:08 | 48.17483 | 17.20539 | 442 ft | 0 kts | 134° |
| 2026-05-04 18:09 | 48.16828 | 17.21555 | 440 ft | 146 kts | 134° |
| 2026-05-04 18:10 | 48.16031 | 17.22787 | 1009 ft | 177 kts | 135° |
| 2026-05-04 18:10 | 48.15053 | 17.24168 | 1840 ft | 200 kts | 146° |
| 2026-05-04 18:10 | 48.13998 | 17.25588 | 3063 ft | 213 kts | 139° |
| 2026-05-04 18:10 | 48.12952 | 17.27281 | 4029 ft | 232 kts | 136° |
| 2026-05-04 18:11 | 48.12091 | 17.29532 | 4473 ft | 272 kts | 110° |
| 2026-05-04 18:11 | 48.11995 | 17.32371 | 4780 ft | 281 kts | 83° |
| 2026-05-04 18:11 | 48.12553 | 17.35211 | 4896 ft | 285 kts | 73° |
| 2026-05-04 18:11 | 48.13274 | 17.37987 | 4952 ft | 286 kts | 71° |
| 2026-05-04 18:12 | 48.14040 | 17.40723 | 4968 ft | 284 kts | 70° |
| 2026-05-04 18:12 | 48.14819 | 17.43453 | 4982 ft | 285 kts | 70° |
| 2026-05-04 18:12 | 48.15591 | 17.46183 | 5025 ft | 284 kts | 70° |
| 2026-05-04 18:12 | 48.16362 | 17.48954 | 5269 ft | 292 kts | 71° |
| 2026-05-04 18:13 | 48.17075 | 17.51743 | 6420 ft | 284 kts | 71° |
| 2026-05-04 18:13 | 48.17741 | 17.54544 | 7566 ft | 287 kts | 72° |
| 2026-05-04 18:13 | 48.19069 | 17.60312 | 9776 ft | 298 kts | 73° |
| 2026-05-04 18:14 | 48.19494 | 17.63377 | 10576 ft | 309 kts | 92° |
| 2026-05-04 18:14 | 48.19203 | 17.66658 | 11136 ft | 327 kts | 104° |
| 2026-05-04 18:14 | 48.18685 | 17.70096 | 11583 ft | 351 kts | 105° |
| 2026-05-04 18:15 | 48.17470 | 17.77721 | 11910 ft | 390 kts | 105° |
| 2026-05-04 18:15 | 48.16298 | 17.85626 | 11972 ft | 390 kts | 104° |
| 2026-05-04 18:15 | 48.15739 | 17.89600 | 11977 ft | 389 kts | 104° |
| 2026-05-04 18:16 | 48.15197 | 17.93559 | 11982 ft | 388 kts | 103° |
| 2026-05-04 18:16 | 48.14668 | 17.97525 | 11988 ft | 389 kts | 103° |
| 2026-05-04 18:16 | 48.14146 | 18.01505 | 11986 ft | 389 kts | 103° |
| 2026-05-04 18:17 | 48.13126 | 18.09466 | 12940 ft | 391 kts | 102° |
| 2026-05-04 18:17 | 48.12620 | 18.13476 | 13846 ft | 395 kts | 102° |
| 2026-05-04 18:17 | 48.11596 | 18.21649 | 15388 ft | 404 kts | 102° |
| 2026-05-04 18:18 | 48.11079 | 18.25800 | 16151 ft | 408 kts | 102° |
| 2026-05-04 18:18 | 48.10556 | 18.30000 | 16888 ft | 413 kts | 102° |
| 2026-05-04 18:18 | 48.10029 | 18.34242 | 17635 ft | 417 kts | 102° |
| 2026-05-04 18:18 | 48.09497 | 18.38534 | 18335 ft | 422 kts | 102° |
| 2026-05-04 18:19 | 48.08414 | 18.47237 | 19552 ft | 430 kts | 101° |
| 2026-05-04 18:19 | 48.07864 | 18.51647 | 20153 ft | 433 kts | 101° |
| 2026-05-04 18:19 | 48.07309 | 18.56095 | 20741 ft | 437 kts | 101° |
| 2026-05-04 18:20 | 48.06748 | 18.60582 | 21325 ft | 441 kts | 101° |
| 2026-05-04 18:20 | 48.06182 | 18.65102 | 21898 ft | 444 kts | 101° |
| 2026-05-04 18:20 | 48.05614 | 18.69635 | 22570 ft | 433 kts | 101° |
| 2026-05-04 18:20 | 48.05083 | 18.73869 | 22840 ft | 402 kts | 101° |
| 2026-05-04 18:21 | 48.04570 | 18.77970 | 22957 ft | 405 kts | 101° |
| 2026-05-04 18:21 | 48.04045 | 18.82141 | 22999 ft | 409 kts | 101° |
| 2026-05-04 18:21 | 48.03519 | 18.86315 | 23018 ft | 407 kts | 101° |
| 2026-05-04 18:21 | 48.02995 | 18.90462 | 23024 ft | 406 kts | 101° |
| 2026-05-04 18:22 | 48.02468 | 18.94612 | 23036 ft | 407 kts | 101° |
| 2026-05-04 18:22 | 48.01938 | 18.98772 | 23034 ft | 408 kts | 101° |
| 2026-05-04 18:22 | 48.01408 | 19.02920 | 23037 ft | 407 kts | 101° |
| 2026-05-04 18:22 | 48.01055 | 19.05670 | 23039 ft | 406 kts | 101° |
| 2026-05-04 18:23 | 48.00523 | 19.09813 | 23040 ft | 406 kts | 101° |
| 2026-05-04 18:23 | 47.99815 | 19.15306 | 23040 ft | 407 kts | 101° |
| 2026-05-04 18:23 | 47.99278 | 19.19453 | 23045 ft | 407 kts | 101° |
| 2026-05-04 18:23 | 47.98740 | 19.23599 | 23041 ft | 406 kts | 101° |
| 2026-05-04 18:24 | 47.98201 | 19.27740 | 23045 ft | 406 kts | 101° |
| 2026-05-04 18:24 | 47.97837 | 19.30526 | 23048 ft | 406 kts | 101° |
| 2026-05-04 18:24 | 47.97294 | 19.34665 | 23047 ft | 406 kts | 101° |
| 2026-05-04 18:24 | 47.96751 | 19.38799 | 23051 ft | 406 kts | 101° |
| 2026-05-04 18:25 | 47.96205 | 19.42936 | 23046 ft | 406 kts | 101° |
| 2026-05-04 18:25 | 47.95659 | 19.47069 | 23050 ft | 406 kts | 101° |
| 2026-05-04 18:25 | 47.95110 | 19.51199 | 23051 ft | 406 kts | 101° |
| 2026-05-04 18:25 | 47.94561 | 19.55328 | 23049 ft | 406 kts | 101° |
| 2026-05-04 18:26 | 47.94009 | 19.59457 | 23057 ft | 406 kts | 101° |
| 2026-05-04 18:26 | 47.93457 | 19.63583 | 23056 ft | 406 kts | 101° |
| 2026-05-04 18:26 | 47.92903 | 19.67703 | 23056 ft | 406 kts | 101° |
| 2026-05-04 18:26 | 47.92347 | 19.71831 | 23055 ft | 406 kts | 101° |
| 2026-05-04 18:27 | 47.91792 | 19.75949 | 23057 ft | 406 kts | 101° |
| 2026-05-04 18:27 | 47.91233 | 19.80072 | 23056 ft | 405 kts | 101° |
| 2026-05-04 18:27 | 47.90673 | 19.84185 | 23056 ft | 405 kts | 101° |
| 2026-05-04 18:27 | 47.90112 | 19.88297 | 23055 ft | 405 kts | 101° |
| 2026-05-04 18:28 | 47.89549 | 19.92415 | 23059 ft | 405 kts | 101° |
| 2026-05-04 18:28 | 47.88985 | 19.96522 | 23051 ft | 404 kts | 101° |
| 2026-05-04 18:28 | 47.88421 | 20.00624 | 23057 ft | 404 kts | 101° |
| 2026-05-04 18:28 | 47.87854 | 20.04730 | 23057 ft | 405 kts | 101° |
| 2026-05-04 18:29 | 47.87288 | 20.08832 | 23057 ft | 404 kts | 101° |
| 2026-05-04 18:29 | 47.86718 | 20.12933 | 23053 ft | 404 kts | 101° |
| 2026-05-04 18:29 | 47.86150 | 20.17024 | 23052 ft | 404 kts | 101° |
| 2026-05-04 18:29 | 47.85579 | 20.21126 | 23053 ft | 404 kts | 101° |
| 2026-05-04 18:30 | 47.84434 | 20.29301 | 23050 ft | 403 kts | 101° |
| 2026-05-04 18:30 | 47.83860 | 20.33386 | 23053 ft | 403 kts | 101° |
| 2026-05-04 18:30 | 47.83285 | 20.37465 | 23097 ft | 403 kts | 101° |
| 2026-05-04 18:31 | 47.82705 | 20.41559 | 23453 ft | 405 kts | 101° |
| 2026-05-04 18:31 | 47.82123 | 20.45664 | 24007 ft | 407 kts | 101° |
| 2026-05-04 18:31 | 47.81533 | 20.49804 | 24540 ft | 410 kts | 101° |
| 2026-05-04 18:31 | 47.80946 | 20.53908 | 25067 ft | 413 kts | 101° |
| 2026-05-04 18:32 | 47.80342 | 20.58112 | 25556 ft | 417 kts | 101° |
| 2026-05-04 18:32 | 47.79734 | 20.62346 | 26071 ft | 420 kts | 101° |
| 2026-05-04 18:32 | 47.79119 | 20.66611 | 26563 ft | 423 kts | 101° |
| 2026-05-04 18:32 | 47.78499 | 20.70901 | 27048 ft | 427 kts | 101° |
| 2026-05-04 18:33 | 47.77871 | 20.75233 | 27532 ft | 430 kts | 100° |
| 2026-05-04 18:33 | 47.77229 | 20.79655 | 28006 ft | 433 kts | 100° |
| 2026-05-04 18:33 | 47.76598 | 20.83989 | 28466 ft | 436 kts | 100° |
| 2026-05-04 18:33 | 47.75943 | 20.88469 | 28921 ft | 440 kts | 100° |
| 2026-05-04 18:34 | 47.75291 | 20.92920 | 29364 ft | 443 kts | 100° |
| 2026-05-04 18:34 | 47.74641 | 20.97341 | 29807 ft | 446 kts | 100° |
| 2026-05-04 18:34 | 47.73968 | 21.01916 | 30209 ft | 449 kts | 100° |
| 2026-05-04 18:34 | 47.73296 | 21.06465 | 30589 ft | 451 kts | 100° |
| 2026-05-04 18:35 | 47.72620 | 21.11028 | 30966 ft | 454 kts | 100° |
| 2026-05-04 18:35 | 47.71948 | 21.15553 | 31343 ft | 456 kts | 100° |
| 2026-05-04 18:35 | 47.71253 | 21.20212 | 31703 ft | 458 kts | 100° |
| 2026-05-04 18:35 | 47.70567 | 21.24797 | 32126 ft | 459 kts | 100° |
| 2026-05-04 18:36 | 47.69868 | 21.29452 | 32628 ft | 457 kts | 99° |
| 2026-05-04 18:36 | 47.69175 | 21.34051 | 33144 ft | 456 kts | 99° |
| 2026-05-04 18:36 | 47.68482 | 21.38632 | 33648 ft | 454 kts | 99° |
| 2026-05-04 18:36 | 47.67789 | 21.43204 | 34126 ft | 453 kts | 99° |
| 2026-05-04 18:37 | 47.67108 | 21.47697 | 34518 ft | 453 kts | 99° |
| 2026-05-04 18:37 | 47.66410 | 21.52313 | 34909 ft | 453 kts | 99° |
| 2026-05-04 18:37 | 47.65718 | 21.56878 | 35305 ft | 453 kts | 100° |
| 2026-05-04 18:37 | 47.65028 | 21.61423 | 35682 ft | 452 kts | 100° |
| 2026-05-04 18:38 | 47.64343 | 21.65913 | 36061 ft | 452 kts | 100° |
| 2026-05-04 18:38 | 47.63647 | 21.70461 | 36446 ft | 452 kts | 100° |
| 2026-05-04 18:38 | 47.62952 | 21.74988 | 36782 ft | 449 kts | 101° |
| 2026-05-04 18:38 | 47.62259 | 21.79469 | 36939 ft | 444 kts | 101° |
| 2026-05-04 18:39 | 47.61567 | 21.83936 | 37005 ft | 446 kts | 101° |
| 2026-05-04 18:39 | 47.60173 | 21.92981 | 37042 ft | 452 kts | 98° |
| 2026-05-04 18:40 | 47.59511 | 22.02176 | 37050 ft | 447 kts | 91° |
| 2026-05-04 18:40 | 47.59132 | 22.11339 | 37054 ft | 445 kts | 91° |
| 2026-05-04 18:41 | 47.58772 | 22.20515 | 37059 ft | 447 kts | 91° |
| 2026-05-04 18:41 | 47.58391 | 22.29703 | 37057 ft | 447 kts | 91° |
| 2026-05-04 18:42 | 47.57982 | 22.38875 | 37056 ft | 446 kts | 91° |
| 2026-05-04 18:42 | 47.57551 | 22.48038 | 37057 ft | 447 kts | 92° |
| 2026-05-04 18:43 | 47.57099 | 22.57223 | 37054 ft | 447 kts | 92° |
| 2026-05-04 18:43 | 47.56632 | 22.66392 | 37061 ft | 446 kts | 92° |
| 2026-05-04 18:44 | 47.56152 | 22.75535 | 37052 ft | 446 kts | 92° |
| 2026-05-04 18:44 | 47.55660 | 22.84696 | 37052 ft | 447 kts | 92° |
| 2026-05-04 18:45 | 47.55157 | 22.93869 | 37057 ft | 446 kts | 92° |
| 2026-05-04 18:45 | 47.54645 | 23.03013 | 37061 ft | 445 kts | 92° |
| 2026-05-04 18:46 | 47.54125 | 23.12149 | 37059 ft | 446 kts | 93° |
| 2026-05-04 18:46 | 47.53595 | 23.21305 | 37075 ft | 447 kts | 93° |
| 2026-05-04 18:47 | 47.53058 | 23.30455 | 37071 ft | 446 kts | 93° |
| 2026-05-04 18:47 | 47.52513 | 23.39586 | 37074 ft | 446 kts | 93° |
| 2026-05-04 18:48 | 47.51960 | 23.48733 | 37079 ft | 447 kts | 93° |
| 2026-05-04 18:48 | 47.51399 | 23.57874 | 37080 ft | 446 kts | 93° |
| 2026-05-04 18:49 | 47.50830 | 23.66997 | 37082 ft | 445 kts | 93° |
| 2026-05-04 18:49 | 47.50259 | 23.76063 | 37081 ft | 446 kts | 93° |
| 2026-05-04 18:50 | 47.49676 | 23.85206 | 37083 ft | 446 kts | 94° |
| 2026-05-04 18:50 | 47.49085 | 23.94331 | 37084 ft | 445 kts | 94° |
| 2026-05-04 18:51 | 47.48489 | 24.03445 | 37085 ft | 446 kts | 94° |
| 2026-05-04 18:51 | 47.47883 | 24.12576 | 37083 ft | 447 kts | 94° |
| 2026-05-04 18:52 | 47.47270 | 24.21710 | 37085 ft | 446 kts | 94° |
| 2026-05-04 18:52 | 47.46652 | 24.30825 | 37086 ft | 446 kts | 94° |
| 2026-05-04 18:53 | 47.46026 | 24.39948 | 37087 ft | 447 kts | 94° |
| 2026-05-04 18:53 | 47.45392 | 24.49072 | 37086 ft | 446 kts | 94° |
| 2026-05-04 18:54 | 47.44751 | 24.58187 | 37091 ft | 446 kts | 94° |
| 2026-05-04 18:54 | 47.44103 | 24.67294 | 37093 ft | 446 kts | 94° |
| 2026-05-04 18:55 | 47.43447 | 24.76414 | 37088 ft | 447 kts | 94° |
| 2026-05-04 18:55 | 47.42450 | 24.90071 | 37106 ft | 446 kts | 94° |
| 2026-05-04 18:56 | 47.41839 | 24.94555 | 37113 ft | 449 kts | 108° |
| 2026-05-04 18:56 | 47.40385 | 24.98641 | 37119 ft | 453 kts | 123° |
| 2026-05-04 18:56 | 47.38797 | 25.02637 | 37111 ft | 451 kts | 110° |
| 2026-05-04 18:56 | 47.38047 | 25.07085 | 37120 ft | 447 kts | 94° |
| 2026-05-04 18:57 | 47.37787 | 25.16235 | 37089 ft | 446 kts | 89° |
| 2026-05-04 18:57 | 47.37659 | 25.25291 | 37089 ft | 443 kts | 90° |
| 2026-05-04 18:58 | 47.37421 | 25.34453 | 37095 ft | 445 kts | 91° |
| 2026-05-04 18:58 | 47.37057 | 25.43517 | 37085 ft | 445 kts | 92° |
| 2026-05-04 18:59 | 47.36587 | 25.52609 | 37090 ft | 445 kts | 93° |
| 2026-05-04 18:59 | 47.36042 | 25.61707 | 37079 ft | 446 kts | 93° |
| 2026-05-04 19:00 | 47.35441 | 25.70810 | 37081 ft | 446 kts | 94° |
| 2026-05-04 19:00 | 47.34799 | 25.79898 | 37072 ft | 445 kts | 94° |
| 2026-05-04 19:01 | 47.34127 | 25.88975 | 37071 ft | 446 kts | 94° |
| 2026-05-04 19:01 | 47.33432 | 25.98064 | 37071 ft | 447 kts | 95° |
| 2026-05-04 19:02 | 47.32718 | 26.07155 | 37056 ft | 446 kts | 95° |
| 2026-05-04 19:02 | 47.32355 | 26.11699 | 36953 ft | 446 kts | 95° |
| 2026-05-04 19:02 | 47.31989 | 26.16239 | 36509 ft | 445 kts | 95° |
| 2026-05-04 19:03 | 47.31622 | 26.20769 | 35653 ft | 445 kts | 95° |
| 2026-05-04 19:03 | 47.31252 | 26.25292 | 34609 ft | 445 kts | 95° |
| 2026-05-04 19:03 | 47.30880 | 26.29824 | 33484 ft | 445 kts | 95° |
| 2026-05-04 19:03 | 47.30503 | 26.34358 | 32194 ft | 447 kts | 95° |
| 2026-05-04 19:04 | 47.30121 | 26.38909 | 30937 ft | 448 kts | 95° |
| 2026-05-04 19:04 | 47.29744 | 26.43362 | 30030 ft | 440 kts | 95° |
| 2026-05-04 19:04 | 47.29366 | 26.47801 | 28988 ft | 433 kts | 95° |
| 2026-05-04 19:04 | 47.28992 | 26.52156 | 27992 ft | 425 kts | 95° |
| 2026-05-04 19:05 | 47.28624 | 26.56443 | 27026 ft | 418 kts | 95° |
| 2026-05-04 19:05 | 47.28260 | 26.60651 | 26082 ft | 411 kts | 95° |
| 2026-05-04 19:05 | 47.27901 | 26.64798 | 25173 ft | 405 kts | 95° |
| 2026-05-04 19:05 | 47.27545 | 26.68881 | 24283 ft | 399 kts | 95° |
| 2026-05-04 19:06 | 47.27193 | 26.72911 | 23389 ft | 394 kts | 95° |
| 2026-05-04 19:06 | 47.26846 | 26.76873 | 22411 ft | 387 kts | 95° |
| 2026-05-04 19:06 | 47.26501 | 26.80777 | 21470 ft | 381 kts | 95° |
| 2026-05-04 19:06 | 47.26159 | 26.84622 | 20570 ft | 376 kts | 95° |
| 2026-05-04 19:07 | 47.25824 | 26.88376 | 19951 ft | 364 kts | 94° |
| 2026-05-04 19:07 | 47.25498 | 26.92004 | 19413 ft | 351 kts | 94° |
| 2026-05-04 19:07 | 47.25180 | 26.95530 | 18602 ft | 347 kts | 94° |
| 2026-05-04 19:07 | 47.24863 | 26.99088 | 17495 ft | 352 kts | 94° |
| 2026-05-04 19:08 | 47.24547 | 27.02621 | 16681 ft | 345 kts | 94° |
| 2026-05-04 19:08 | 47.24234 | 27.06100 | 15871 ft | 340 kts | 94° |
| 2026-05-04 19:08 | 47.23925 | 27.09520 | 15093 ft | 335 kts | 94° |
| 2026-05-04 19:08 | 47.23620 | 27.12886 | 14332 ft | 330 kts | 94° |
| 2026-05-04 19:09 | 47.23317 | 27.16224 | 13701 ft | 334 kts | 94° |
| 2026-05-04 19:09 | 47.23115 | 27.18463 | 13436 ft | 331 kts | 94° |
| 2026-05-04 19:09 | 47.22813 | 27.21772 | 13199 ft | 324 kts | 94° |
| 2026-05-04 19:09 | 47.22409 | 27.26170 | 13082 ft | 325 kts | 94° |
| 2026-05-04 19:10 | 47.22210 | 27.28347 | 13069 ft | 324 kts | 94° |
| 2026-05-04 19:10 | 47.21909 | 27.31624 | 13056 ft | 323 kts | 94° |
| 2026-05-04 19:10 | 47.21606 | 27.34908 | 13051 ft | 325 kts | 94° |
| 2026-05-04 19:10 | 47.21303 | 27.38200 | 13046 ft | 324 kts | 94° |
| 2026-05-04 19:11 | 47.20998 | 27.41477 | 13037 ft | 324 kts | 94° |
| 2026-05-04 19:11 | 47.20693 | 27.44759 | 13046 ft | 325 kts | 94° |
| 2026-05-04 19:11 | 47.20386 | 27.48051 | 13054 ft | 325 kts | 94° |
| 2026-05-04 19:11 | 47.20077 | 27.51337 | 13046 ft | 325 kts | 94° |
| 2026-05-04 19:12 | 47.19767 | 27.54618 | 13052 ft | 323 kts | 94° |
| 2026-05-04 19:12 | 47.19147 | 27.61137 | 12250 ft | 320 kts | 94° |
| 2026-05-04 19:12 | 47.18835 | 27.64399 | 11671 ft | 323 kts | 94° |
| 2026-05-04 19:13 | 47.18523 | 27.67655 | 11337 ft | 319 kts | 94° |
| 2026-05-04 19:13 | 47.18214 | 27.70873 | 11178 ft | 319 kts | 94° |
| 2026-05-04 19:13 | 47.17903 | 27.74104 | 11106 ft | 319 kts | 94° |
| 2026-05-04 19:13 | 47.17593 | 27.77328 | 11075 ft | 318 kts | 94° |
| 2026-05-04 19:14 | 47.17282 | 27.80552 | 11067 ft | 319 kts | 94° |
| 2026-05-04 19:14 | 47.16849 | 27.83767 | 11056 ft | 322 kts | 101° |
| 2026-05-04 19:14 | 47.16182 | 27.86919 | 11048 ft | 324 kts | 104° |
| 2026-05-04 19:14 | 47.15421 | 27.90048 | 11050 ft | 326 kts | 105° |
| 2026-05-04 19:15 | 47.14615 | 27.93154 | 11044 ft | 325 kts | 106° |
| 2026-05-04 19:15 | 47.13785 | 27.96249 | 11046 ft | 326 kts | 107° |
| 2026-05-04 19:15 | 47.12954 | 27.99293 | 11020 ft | 326 kts | 107° |
| 2026-05-04 19:15 | 47.12108 | 28.02359 | 10593 ft | 322 kts | 107° |
| 2026-05-04 19:16 | 47.11261 | 28.05399 | 9775 ft | 322 kts | 107° |
| 2026-05-04 19:16 | 47.10417 | 28.08421 | 8939 ft | 318 kts | 107° |
| 2026-05-04 19:16 | 47.09588 | 28.11412 | 8076 ft | 314 kts | 107° |
| 2026-05-04 19:16 | 47.08757 | 28.14439 | 6762 ft | 326 kts | 108° |
| 2026-05-04 19:17 | 47.07903 | 28.17569 | 5400 ft | 339 kts | 109° |
| 2026-05-04 19:17 | 47.06638 | 28.20859 | 4827 ft | 382 kts | 121° |
| 2026-05-04 19:17 | 47.05371 | 28.23896 | 4448 ft | 346 kts | 118° |
| 2026-05-04 19:17 | 47.04221 | 28.26814 | 4209 ft | 314 kts | 117° |
| 2026-05-04 19:18 | 47.03189 | 28.29485 | 3928 ft | 291 kts | 117° |
| 2026-05-04 19:18 | 47.02218 | 28.32035 | 3727 ft | 286 kts | 117° |
| 2026-05-04 19:18 | 47.01255 | 28.34582 | 3625 ft | 285 kts | 117° |
| 2026-05-04 19:18 | 47.00298 | 28.37130 | 3566 ft | 285 kts | 117° |
| 2026-05-04 19:19 | 46.99347 | 28.39665 | 3523 ft | 282 kts | 117° |
| 2026-05-04 19:19 | 46.98398 | 28.42200 | 3511 ft | 285 kts | 117° |
| 2026-05-04 19:19 | 46.97443 | 28.44741 | 3516 ft | 283 kts | 117° |
| 2026-05-04 19:19 | 46.96488 | 28.47273 | 3519 ft | 285 kts | 117° |
| 2026-05-04 19:20 | 46.95540 | 28.49816 | 3513 ft | 283 kts | 114° |
| 2026-05-04 19:20 | 46.95104 | 28.52571 | 3502 ft | 280 kts | 88° |
| 2026-05-04 19:20 | 46.95397 | 28.55384 | 3510 ft | 280 kts | 77° |
| 2026-05-04 19:20 | 46.95823 | 28.58153 | 3503 ft | 278 kts | 76° |
| 2026-05-04 19:21 | 46.96194 | 28.60942 | 3525 ft | 280 kts | 80° |
| 2026-05-04 19:21 | 46.96248 | 28.63765 | 3502 ft | 279 kts | 99° |
| 2026-05-04 19:21 | 46.95462 | 28.66379 | 3447 ft | 284 kts | 121° |
| 2026-05-04 19:21 | 46.94320 | 28.68728 | 2996 ft | 286 kts | 125° |
| 2026-05-04 19:22 | 46.93116 | 28.71017 | 2722 ft | 280 kts | 126° |
| 2026-05-04 19:22 | 46.91919 | 28.73267 | 2601 ft | 280 kts | 122° |
| 2026-05-04 19:22 | 46.91266 | 28.75779 | 2547 ft | 253 kts | 94° |
| 2026-05-04 19:22 | 46.91525 | 28.78161 | 2545 ft | 228 kts | 65° |
| 2026-05-04 19:23 | 46.92111 | 28.80191 | 2536 ft | 207 kts | 76° |
| 2026-05-04 19:23 | 46.92468 | 28.82131 | 2526 ft | 188 kts | 64° |
| 2026-05-04 19:23 | 46.93303 | 28.83368 | 2545 ft | 167 kts | 20° |
| 2026-05-04 19:23 | 46.94441 | 28.83335 | 2276 ft | 185 kts | 333° |
| 2026-05-04 19:24 | 46.95476 | 28.81759 | 2643 ft | 240 kts | 296° |
| 2026-05-04 19:24 | 46.95887 | 28.79252 | 3351 ft | 269 kts | 277° |
| 2026-05-04 19:24 | 46.96023 | 28.76566 | 3690 ft | 267 kts | 274° |
| 2026-05-04 19:24 | 46.96092 | 28.73838 | 3862 ft | 266 kts | 273° |
| 2026-05-04 19:25 | 46.96132 | 28.71115 | 3950 ft | 269 kts | 272° |
| 2026-05-04 19:25 | 46.96158 | 28.68387 | 3986 ft | 267 kts | 272° |
| 2026-05-04 19:25 | 46.96176 | 28.65698 | 4002 ft | 268 kts | 272° |
| 2026-05-04 19:25 | 46.96190 | 28.62968 | 3995 ft | 268 kts | 272° |
| 2026-05-04 19:26 | 46.96509 | 28.60320 | 3994 ft | 264 kts | 296° |
| 2026-05-04 19:26 | 46.97403 | 28.57995 | 4007 ft | 261 kts | 305° |
| 2026-05-04 19:26 | 46.98408 | 28.55765 | 3757 ft | 264 kts | 307° |
| 2026-05-04 19:26 | 46.99438 | 28.53589 | 3623 ft | 258 kts | 307° |
| 2026-05-04 19:27 | 47.00162 | 28.51179 | 3572 ft | 264 kts | 280° |
| 2026-05-04 19:27 | 47.00012 | 28.48514 | 3548 ft | 265 kts | 250° |
| 2026-05-04 19:27 | 46.99018 | 28.46279 | 3532 ft | 265 kts | 221° |
| 2026-05-04 19:27 | 46.97419 | 28.45007 | 3528 ft | 262 kts | 191° |
| 2026-05-04 19:28 | 46.95686 | 28.45007 | 3530 ft | 238 kts | 160° |
| 2026-05-04 19:28 | 46.94369 | 28.46172 | 3537 ft | 211 kts | 128° |
| 2026-05-04 19:28 | 46.93484 | 28.47844 | 3523 ft | 208 kts | 121° |
| 2026-05-04 19:28 | 46.92689 | 28.49597 | 3497 ft | 204 kts | 120° |
| 2026-05-04 19:29 | 46.91925 | 28.51367 | 3517 ft | 207 kts | 118° |
| 2026-05-04 19:29 | 46.91429 | 28.53276 | 3531 ft | 201 kts | 89° |
| 2026-05-04 19:29 | 46.91507 | 28.55296 | 3507 ft | 193 kts | 82° |
| 2026-05-04 19:29 | 46.91654 | 28.57146 | 3490 ft | 173 kts | 81° |
| 2026-05-04 19:30 | 46.91794 | 28.58782 | 3464 ft | 153 kts | 81° |
| 2026-05-04 19:30 | 46.91934 | 28.60334 | 2980 ft | 161 kts | 81° |
| 2026-05-04 19:30 | 46.92073 | 28.62005 | 2612 ft | 163 kts | 83° |
| 2026-05-04 19:30 | 46.92161 | 28.63582 | 2440 ft | 152 kts | 85° |
| 2026-05-04 19:31 | 46.92230 | 28.65192 | 1923 ft | 165 kts | 86° |
| 2026-05-04 19:31 | 46.92266 | 28.66849 | 1644 ft | 161 kts | 91° |
| 2026-05-04 19:31 | 46.92205 | 28.68621 | 1582 ft | 194 kts | 94° |
| 2026-05-04 19:31 | 46.92185 | 28.70708 | 2456 ft | 221 kts | 87° |
| 2026-05-04 19:32 | 46.92259 | 28.73234 | 2733 ft | 278 kts | 87° |
| 2026-05-04 19:32 | 46.92348 | 28.76323 | 2109 ft | 311 kts | 85° |
| 2026-05-04 19:32 | 46.92486 | 28.79218 | 1694 ft | 242 kts | 87° |
| 2026-05-04 19:32 | 46.92538 | 28.81227 | 1814 ft | 162 kts | 88° |
| 2026-05-04 19:33 | 46.92564 | 28.82696 | 1726 ft | 140 kts | 88° |
| 2026-05-04 19:33 | 46.92586 | 28.84208 | 1100 ft | 149 kts | 90° |
| 2026-05-04 19:33 | 46.92618 | 28.85649 | 1125 ft | 144 kts | 89° |
| 2026-05-04 19:33 | 46.92656 | 28.87105 | 958 ft | 144 kts | 89° |
| 2026-05-04 19:34 | 46.92684 | 28.88555 | 741 ft | 142 kts | 89° |
| 2026-05-04 19:34 | 46.92723 | 28.89993 | 535 ft | 143 kts | 89° |
| 2026-05-04 19:34 | 46.92746 | 28.91421 | 397 ft | 139 kts | 88° |
| 2026-05-04 19:34 | 46.92779 | 28.92689 | 364 ft | 111 kts | 88° |
| 2026-05-04 19:35 | 46.92800 | 28.93693 | 331 ft | 88 kts | 90° |
| 2026-05-04 19:35 | 46.92804 | 28.94303 | 317 ft | 52 kts | 89° |
| 2026-05-04 19:35 | 46.92815 | 28.94829 | 304 ft | 53 kts | 87° |
| 2026-05-04 19:35 | 46.92841 | 28.95087 | 298 ft | 10 kts | 35° |
| 2026-05-04 19:36 | 46.92900 | 28.95112 | 299 ft | 0 kts | 11° |
| 2026-05-04 19:36 | 46.92907 | 28.95111 | 298 ft | 2 kts | 353° |
| 2026-05-04 19:36 | 46.92916 | 28.95110 | 299 ft | 0 kts | 354° |
| 2026-05-04 19:37 | 46.92921 | 28.95109 | 298 ft | 4 kts | 354° |
| 2026-05-04 19:37 | 46.92964 | 28.95103 | 298 ft | 9 kts | 355° |
| 2026-05-04 19:37 | 46.93048 | 28.95085 | 299 ft | 15 kts | 345° |
| 2026-05-04 19:38 | 46.93112 | 28.95059 | 300 ft | 0 kts | 336° |
| 2026-05-04 19:38 | 46.93112 | 28.95058 | 300 ft | 1 kts | 336° |
| 2026-05-04 19:38 | 46.93140 | 28.95040 | 299 ft | 7 kts | 334° |
| 2026-05-04 19:39 | 46.93199 | 28.94994 | 302 ft | 12 kts | 331° |
| 2026-05-04 19:39 | 46.93282 | 28.94913 | 302 ft | 16 kts | 311° |
| 2026-05-04 19:39 | 46.93321 | 28.94746 | 306 ft | 19 kts | 277° |
| 2026-05-04 19:39 | 46.93340 | 28.94543 | 311 ft | 21 kts | 276° |
| 2026-05-04 19:40 | 46.93360 | 28.94318 | 316 ft | 24 kts | 276° |
| 2026-05-04 19:40 | 46.93380 | 28.94070 | 323 ft | 26 kts | 277° |
| 2026-05-04 19:40 | 46.93404 | 28.93811 | 327 ft | 19 kts | 277° |
| 2026-05-04 19:40 | 46.93409 | 28.93715 | 329 ft | 0 kts | 265° |
| 2026-05-04 19:41 | 46.93407 | 28.93694 | 331 ft | 3 kts | 265° |
| 2026-05-04 19:41 | 46.93407 | 28.93646 | 333 ft | 7 kts | 271° |
| 2026-05-04 19:41 | 46.93419 | 28.93592 | 331 ft | 4 kts | 309° |
| 2026-05-04 19:41 | 46.93447 | 28.93593 | 332 ft | 6 kts | 50° |
| 2026-05-04 19:42 | 46.93450 | 28.93631 | 331 ft | 0 kts | 96° |